Back to Top

Language: 

My Weather Underground Personal Weather Station Historical Data with Graphs...

Delerius Weather Station Historical Data
Daily Summary for November 3, 2017 Units:  Metric    English   Both
« Previous Day
Next Day »
Daily Weekly Monthly Yearly Custom
  High: Low: Average:
Temperature: 12 °C 8.2 °C 10.4 °C
Dew Point: 8.9 °C 5.5 °C 7.4 °C
Humidity: 94 % 72 % 82 %
Wind Speed: 19.3 km/h 0 km/h 6.6 km/h
Wind Gust: 25.7 km/h - -
Wind:- - SSW
Pressure: 1013.4 hPa 1001.9 hPa -
Precipitation: 1.27 mm    
Historical Graphs
 
 
Tabular Data for November 3, 2017
Time Temperature Dew Point Pressure Wind Wind Speed Wind Gust Humidity Rainfall Rate (Hourly) solar Conditions
00:01 8.8 °C 6.1 °C 1013.4 hPa WSW 9.7 km/h 16.1 km/h 83 % 0 mm 0 W/m2
00:06 8.8 °C 6.1 °C 1013.4 hPa WSW 11.3 km/h 16.1 km/h 83 % 0 mm 0 W/m2
00:11 8.9 °C 6.2 °C 1013.4 hPa West 8 km/h 14.5 km/h 83 % 0 mm 0 W/m2
00:16 8.9 °C 6.2 °C 1013.4 hPa West 9.7 km/h 16.1 km/h 83 % 0 mm 0 W/m2
00:21 8.9 °C 6.2 °C 1013.4 hPa West 6.4 km/h 11.3 km/h 83 % 0 mm 0 W/m2
00:26 8.8 °C 6.2 °C 1013.4 hPa West 6.4 km/h 12.9 km/h 84 % 0 mm 0 W/m2
00:31 8.8 °C 6.2 °C 1013.4 hPa West 8 km/h 11.3 km/h 84 % 0 mm 0 W/m2
00:36 8.8 °C 6.2 °C 1013.4 hPa West 8 km/h 12.9 km/h 84 % 0 mm 0 W/m2
00:41 8.8 °C 6.2 °C 1013.4 hPa West 6.4 km/h 11.3 km/h 84 % 0 mm 0 W/m2
00:46 8.8 °C 6.1 °C 1013.4 hPa West 4.8 km/h 8 km/h 83 % 0 mm 0 W/m2
00:51 8.8 °C 6.1 °C 1013.4 hPa West 6.4 km/h 9.7 km/h 83 % 0 mm 0 W/m2
00:56 8.8 °C 6.1 °C 1013.4 hPa West 8 km/h 11.3 km/h 83 % 0 mm 0 W/m2
01:01 8.8 °C 6.1 °C 1013.4 hPa West 4.8 km/h 8 km/h 83 % 0 mm 0 W/m2
01:06 8.7 °C 6 °C 1013.4 hPa WSW 4.8 km/h 9.7 km/h 83 % 0 mm 0 W/m2
01:11 8.7 °C 6 °C 1013.4 hPa West 1.6 km/h 3.2 km/h 83 % 0 mm 0 W/m2
01:16 8.7 °C 6 °C 1013.4 hPa Calm   3.2 km/h 83 % 0 mm 0 W/m2
01:21 8.6 °C 5.9 °C 1013.4 hPa Calm     83 % 0 mm 0 W/m2
01:26 8.6 °C 5.9 °C 1013.4 hPa Calm   6.4 km/h 83 % 0 mm 0 W/m2
01:31 8.6 °C 5.9 °C 1013.4 hPa Calm   4.8 km/h 83 % 0 mm 0 W/m2
01:36 8.6 °C 5.9 °C 1013.4 hPa WSW 1.6 km/h 8 km/h 83 % 0 mm 0 W/m2
01:41 8.5 °C 5.8 °C 1013.1 hPa West 3.2 km/h 8 km/h 83 % 0 mm 0 W/m2
01:46 8.5 °C 5.8 °C 1013.1 hPa West 3.2 km/h 8 km/h 83 % 0 mm 0 W/m2
01:51 8.5 °C 5.8 °C 1013.1 hPa West 1.6 km/h 3.2 km/h 83 % 0 mm 0 W/m2
01:56 8.5 °C 5.8 °C 1013.1 hPa Calm   3.2 km/h 83 % 0 mm 0 W/m2
02:01 8.5 °C 5.8 °C 1013.1 hPa Calm   6.4 km/h 83 % 0 mm 0 W/m2
02:06 8.4 °C 5.5 °C 1013.1 hPa Calm     82 % 0 mm 0 W/m2
02:11 8.4 °C 5.7 °C 1013.1 hPa Calm   1.6 km/h 83 % 0 mm 0 W/m2
02:16 8.4 °C 5.7 °C 1013.1 hPa Calm     83 % 0 mm 0 W/m2
02:21 8.4 °C 5.7 °C 1013.1 hPa Calm   3.2 km/h 83 % 0 mm 0 W/m2
02:26 8.4 °C 5.7 °C 1013.1 hPa West 1.6 km/h 3.2 km/h 83 % 0 mm 0 W/m2
02:31 8.3 °C 5.6 °C 1013.1 hPa West 1.6 km/h 6.4 km/h 83 % 0 mm 0 W/m2
02:36 8.3 °C 5.6 °C 1013.1 hPa Calm   3.2 km/h 83 % 0 mm 0 W/m2
02:41 8.3 °C 5.6 °C 1013.1 hPa Calm   1.6 km/h 83 % 0 mm 0 W/m2
02:46 8.3 °C 5.6 °C 1013.1 hPa Calm     83 % 0 mm 0 W/m2
02:51 8.3 °C 5.6 °C 1012.8 hPa Calm     83 % 0 mm 0 W/m2
02:56 8.3 °C 5.6 °C 1013.1 hPa Calm     83 % 0 mm 0 W/m2
03:01 8.3 °C 5.6 °C 1013.1 hPa Calm   1.6 km/h 83 % 0 mm 0 W/m2
03:06 8.3 °C 5.6 °C 1013.1 hPa Calm   1.6 km/h 83 % 0 mm 0 W/m2
03:11 8.2 °C 5.5 °C 1013.1 hPa Calm   3.2 km/h 83 % 0 mm 0 W/m2
03:16 8.3 °C 5.6 °C 1013.1 hPa West 3.2 km/h 6.4 km/h 83 % 0 mm 0 W/m2
03:21 8.3 °C 5.6 °C 1013.1 hPa Calm   3.2 km/h 83 % 0 mm 5 W/m2
03:26 8.3 °C 5.6 °C 1013.1 hPa Calm   3.2 km/h 83 % 0 mm 5 W/m2
03:31 8.3 °C 5.6 °C 1013.1 hPa Calm   1.6 km/h 83 % 0 mm 5 W/m2
03:36 8.3 °C 5.6 °C 1013.1 hPa West 3.2 km/h 8 km/h 83 % 0 mm 7 W/m2
03:41 8.4 °C 5.5 °C 1013.1 hPa West 1.6 km/h 6.4 km/h 82 % 0 mm 11 W/m2
03:46 8.4 °C 5.5 °C 1012.8 hPa Calm   1.6 km/h 82 % 0 mm 12 W/m2
03:51 8.4 °C 5.5 °C 1013.1 hPa Calm   3.2 km/h 82 % 0 mm 14 W/m2
03:56 8.4 °C 5.5 °C 1013.1 hPa Calm     82 % 0 mm 16 W/m2
04:01 8.4 °C 5.5 °C 1013.1 hPa Calm   1.6 km/h 82 % 0 mm 16 W/m2
04:06 8.4 °C 5.5 °C 1012.8 hPa Calm   1.6 km/h 82 % 0 mm 19 W/m2
04:11 8.5 °C 5.6 °C 1013.1 hPa West 1.6 km/h 4.8 km/h 82 % 0 mm 19 W/m2
04:17 8.6 °C 5.7 °C 1012.8 hPa Calm     82 % 0 mm 26 W/m2
04:22 8.6 °C 5.9 °C 1012.8 hPa Calm   1.6 km/h 83 % 0 mm 21 W/m2
04:27 8.6 °C 5.7 °C 1013.1 hPa Calm     82 % 0 mm 26 W/m2
04:32 8.6 °C 5.7 °C 1013.1 hPa Calm     82 % 0 mm 37 W/m2
04:37 8.7 °C 5.8 °C 1013.1 hPa Calm   3.2 km/h 82 % 0 mm 33 W/m2
04:42 8.7 °C 5.8 °C 1013.1 hPa SW 3.2 km/h 9.7 km/h 82 % 0 mm 47 W/m2
04:47 8.8 °C 5.7 °C 1013.1 hPa SW 4.8 km/h 9.7 km/h 81 % 0 mm 49 W/m2
04:52 9 °C 5.9 °C 1012.8 hPa SW 3.2 km/h 8 km/h 81 % 0 mm 51 W/m2
04:57 9.1 °C 5.8 °C 1012.8 hPa SW 3.2 km/h 8 km/h 80 % 0 mm 49 W/m2
05:02 9.2 °C 5.9 °C 1012.8 hPa SW 3.2 km/h 8 km/h 80 % 0 mm 70 W/m2
05:07 9.3 °C 6 °C 1012.8 hPa SW 3.2 km/h 8 km/h 80 % 0 mm 88 W/m2
05:12 9.4 °C 6.1 °C 1012.8 hPa SSW 9.7 km/h 16.1 km/h 80 % 0 mm 86 W/m2
05:17 9.5 °C 6.1 °C 1012.8 hPa SSW 8 km/h 9.7 km/h 79 % 0 mm 88 W/m2
05:22 9.6 °C 6.1 °C 1012.8 hPa SSW 8 km/h 11.3 km/h 79 % 0 mm 70 W/m2
05:27 9.7 °C 6.1 °C 1012.8 hPa SSW 8 km/h 12.9 km/h 78 % 0 mm 127 W/m2
05:32 9.8 °C 6.2 °C 1012.8 hPa SSW 6.4 km/h 9.7 km/h 78 % 0 mm 146 W/m2
05:37 9.9 °C 6.2 °C 1012.8 hPa SSW 6.4 km/h 11.3 km/h 78 % 0 mm 178 W/m2
05:42 10.1 °C 6.4 °C 1012.8 hPa SSW 4.8 km/h 9.7 km/h 78 % 0 mm 163 W/m2
05:47 10.2 °C 6.6 °C 1012.8 hPa SSW 6.4 km/h 8 km/h 78 % 0 mm 148 W/m2
05:52 10.3 °C 6.6 °C 1012.8 hPa SSW 4.8 km/h 9.7 km/h 78 % 0 mm 153 W/m2
05:57 10.4 °C 6.6 °C 1012.8 hPa SW 4.8 km/h 8 km/h 77 % 0 mm 162 W/m2
06:02 10.5 °C 6.8 °C 1012.8 hPa SW 1.6 km/h 3.2 km/h 78 % 0 mm 172 W/m2
06:07 10.6 °C 6.9 °C 1012.8 hPa SW 8 km/h 11.3 km/h 78 % 0 mm 171 W/m2
06:12 10.8 °C 7.1 °C 1012.8 hPa West 3.2 km/h 8 km/h 78 % 0 mm 151 W/m2
06:17 10.9 °C 7.2 °C 1012.8 hPa West 1.6 km/h 3.2 km/h 78 % 0 mm 127 W/m2
06:22 11 °C 7.3 °C 1012.8 hPa Calm   3.2 km/h 78 % 0 mm 125 W/m2
06:27 11.1 °C 7.4 °C 1012.8 hPa WNW 1.6 km/h 6.4 km/h 78 % 0 mm 120 W/m2
06:32 11.2 °C 7.3 °C 1012.8 hPa Calm   3.2 km/h 77 % 0 mm 93 W/m2
06:37 11.2 °C 7.1 °C 1012.4 hPa WSW 6.4 km/h 12.9 km/h 76 % 0 mm 104 W/m2
06:42 11.2 °C 7.1 °C 1012.8 hPa WSW 9.7 km/h 14.5 km/h 76 % 0 mm 116 W/m2
06:47 11.2 °C 7.1 °C 1012.4 hPa SW 11.3 km/h 19.3 km/h 76 % 0 mm 97 W/m2
06:52 11.3 °C 7 °C 1012.4 hPa WSW 9.7 km/h 19.3 km/h 75 % 0 mm 63 W/m2
06:57 11.2 °C 6.7 °C 1012.4 hPa WSW 9.7 km/h 14.5 km/h 74 % 0 mm 74 W/m2
07:02 11.2 °C 6.7 °C 1012.4 hPa West 11.3 km/h 17.7 km/h 74 % 0 mm 51 W/m2
07:07 11.2 °C 6.7 °C 1012.4 hPa WSW 6.4 km/h 11.3 km/h 74 % 0 mm 46 W/m2
07:12 11.1 °C 6.6 °C 1012.1 hPa WSW 8 km/h 12.9 km/h 74 % 0 mm 42 W/m2
07:17 11.1 °C 6.6 °C 1012.1 hPa WSW 6.4 km/h 11.3 km/h 74 % 0 mm 58 W/m2
07:22 11.1 °C 6.6 °C 1012.1 hPa SW 4.8 km/h 11.3 km/h 74 % 0 mm 77 W/m2
07:27 11.1 °C 6.6 °C 1012.1 hPa WSW 4.8 km/h 9.7 km/h 74 % 0 mm 65 W/m2
07:32 11.1 °C 6.4 °C 1012.1 hPa WSW 8 km/h 11.3 km/h 73 % 0 mm 60 W/m2
07:37 11.1 °C 6.4 °C 1011.7 hPa SW 6.4 km/h 9.7 km/h 73 % 0 mm 63 W/m2
07:42 11.1 °C 6.2 °C 1011.7 hPa SW 9.7 km/h 12.9 km/h 72 % 0 mm 65 W/m2
07:47 11.2 °C 6.3 °C 1011.7 hPa SW 8 km/h 11.3 km/h 72 % 0 mm 53 W/m2
07:52 11.2 °C 6.3 °C 1011.7 hPa SW 4.8 km/h 8 km/h 72 % 0 mm 70 W/m2
07:57 11.2 °C 6.3 °C 1011.7 hPa SW 4.8 km/h 8 km/h 72 % 0 mm 84 W/m2
08:08 11.3 °C 6.4 °C 1011.4 hPa SW 3.2 km/h 6.4 km/h 72 % 0 mm 104 W/m2
08:13 11.4 °C 6.6 °C 1011.4 hPa SW 3.2 km/h 8 km/h 72 % 0 mm 86 W/m2
08:18 11.4 °C 6.7 °C 1011.4 hPa SW 6.4 km/h 9.7 km/h 73 % 0 mm 76 W/m2
08:23 11.5 °C 6.8 °C 1011.4 hPa SSW 8 km/h 12.9 km/h 73 % 0 mm 77 W/m2
08:28 11.5 °C 6.8 °C 1011.4 hPa SW 8 km/h 11.3 km/h 73 % 0 mm 107 W/m2
08:33 11.5 °C 6.8 °C 1011.4 hPa South 6.4 km/h 12.9 km/h 73 % 0 mm 97 W/m2
08:38 11.5 °C 6.6 °C 1011.1 hPa SSW 8 km/h 11.3 km/h 72 % 0 mm 51 W/m2
08:43 11.5 °C 6.8 °C 1011.1 hPa SSW 6.4 km/h 12.9 km/h 73 % 0 mm 69 W/m2
08:48 11.5 °C 6.8 °C 1011.1 hPa SSW 8 km/h 14.5 km/h 73 % 0 mm 77 W/m2
08:53 11.5 °C 6.8 °C 1011.1 hPa SW 6.4 km/h 9.7 km/h 73 % 0 mm 67 W/m2
08:58 11.5 °C 6.8 °C 1011.1 hPa SSW 4.8 km/h 9.7 km/h 73 % 0 mm 60 W/m2
09:03 11.5 °C 6.8 °C 1011.1 hPa SSW 8 km/h 12.9 km/h 73 % 0 mm 56 W/m2
09:08 11.6 °C 6.9 °C 1011.1 hPa SSW 6.4 km/h 9.7 km/h 73 % 0 mm 56 W/m2
09:13 11.6 °C 6.9 °C 1011.1 hPa SSW 6.4 km/h 14.5 km/h 73 % 0 mm 67 W/m2
09:18 11.6 °C 6.9 °C 1010.7 hPa SSW 9.7 km/h 14.5 km/h 73 % 0 mm 69 W/m2
09:23 11.6 °C 6.7 °C 1010.7 hPa SSW 8 km/h 14.5 km/h 72 % 0 mm 62 W/m2
09:28 11.6 °C 6.7 °C 1010.7 hPa SW 9.7 km/h 12.9 km/h 72 % 0 mm 60 W/m2
09:33 11.6 °C 6.7 °C 1010.7 hPa SSW 11.3 km/h 14.5 km/h 72 % 0 mm 60 W/m2
09:38 11.6 °C 6.7 °C 1010.7 hPa SW 9.7 km/h 12.9 km/h 72 % 0 mm 63 W/m2
09:43 11.7 °C 6.8 °C 1010.7 hPa SSW 8 km/h 11.3 km/h 72 % 0 mm 56 W/m2
09:48 11.7 °C 6.8 °C 1010.7 hPa SSW 8 km/h 12.9 km/h 72 % 0 mm 37 W/m2
09:53 11.7 °C 6.8 °C 1010.4 hPa SSW 6.4 km/h 11.3 km/h 72 % 0 mm 37 W/m2
09:58 11.7 °C 6.8 °C 1010.4 hPa SSW 8 km/h 11.3 km/h 72 % 0 mm 44 W/m2
10:03 11.7 °C 7 °C 1010.4 hPa South 8 km/h 14.5 km/h 73 % 0 mm 67 W/m2
10:08 11.7 °C 7 °C 1010.4 hPa SSW 4.8 km/h 9.7 km/h 73 % 0 mm 63 W/m2
10:13 11.7 °C 7 °C 1010.4 hPa SSW 6.4 km/h 11.3 km/h 73 % 0 mm 63 W/m2
10:18 11.7 °C 6.8 °C 1010.4 hPa SSW 6.4 km/h 11.3 km/h 72 % 0 mm 51 W/m2
10:23 11.8 °C 6.9 °C 1010.4 hPa SSW 6.4 km/h 12.9 km/h 72 % 0 mm 51 W/m2
10:28 11.8 °C 6.9 °C 1010 hPa SSW 4.8 km/h 11.3 km/h 72 % 0 mm 95 W/m2
10:33 11.8 °C 6.9 °C 1010 hPa SSW 9.7 km/h 14.5 km/h 72 % 0 mm 111 W/m2
10:38 11.9 °C 7.2 °C 1010 hPa SW 9.7 km/h 16.1 km/h 73 % 0 mm 100 W/m2
10:43 12 °C 7.3 °C 1010 hPa SW 11.3 km/h 17.7 km/h 73 % 0 mm 118 W/m2
10:48 12 °C 7.5 °C 1010 hPa SSW 9.7 km/h 14.5 km/h 74 % 0 mm 83 W/m2
10:53 11.9 °C 7.4 °C 1010 hPa SW 11.3 km/h 19.3 km/h 74 % 0 mm 65 W/m2
10:58 11.9 °C 7.4 °C 1010 hPa SW 12.9 km/h 17.7 km/h 74 % 0 mm 46 W/m2
11:00 11.9 °C 7.6 °C 1010 hPa SW 11.3 km/h 17.7 km/h 75 % 0 mm 46 W/m2
11:05 11.8 °C 7.5 °C 1010 hPa WSW 9.7 km/h 14.5 km/h 75 % 0 mm 63 W/m2
11:10 11.8 °C 7.7 °C 1010 hPa SW 9.7 km/h 12.9 km/h 76 % 0 mm 47 W/m2
11:15 11.8 °C 7.7 °C 1010 hPa SW 11.3 km/h 17.7 km/h 76 % 0 mm 30 W/m2
11:20 11.7 °C 7.6 °C 1009.7 hPa SW 9.7 km/h 12.9 km/h 76 % 0 mm 26 W/m2
11:25 11.7 °C 7.8 °C 1009.7 hPa WSW 4.8 km/h 9.7 km/h 77 % 0 mm 23 W/m2
11:30 11.6 °C 7.7 °C 1009.7 hPa WSW 6.4 km/h 11.3 km/h 77 % 0 mm 21 W/m2
11:35 11.6 °C 7.7 °C 1009.7 hPa SSW 8 km/h 9.7 km/h 77 % 0 mm 18 W/m2
11:40 11.6 °C 7.7 °C 1009.7 hPa SSW 6.4 km/h 12.9 km/h 77 % 0 mm 16 W/m2
11:45 11.6 °C 7.9 °C 1009.7 hPa SW 3.2 km/h 8 km/h 78 % 0 mm 12 W/m2
11:50 11.5 °C 7.8 °C 1009.7 hPa SSW 4.8 km/h 8 km/h 78 % 0 mm 12 W/m2
11:55 11.5 °C 7.8 °C 1009.7 hPa South 4.8 km/h 11.3 km/h 78 % 0 mm 9 W/m2
12:00 11.5 °C 7.8 °C 1009.7 hPa SSW 6.4 km/h 11.3 km/h 78 % 0 mm 9 W/m2
12:05 11.4 °C 7.9 °C 1009.7 hPa SW 3.2 km/h 8 km/h 79 % 0 mm 7 W/m2
12:10 11.4 °C 7.9 °C 1009.7 hPa SW 1.6 km/h 8 km/h 79 % 0 mm 5 W/m2
12:15 11.4 °C 7.9 °C 1009.7 hPa SSW 4.8 km/h 9.7 km/h 79 % 0 mm 0 W/m2
12:20 11.4 °C 8.1 °C 1009.4 hPa South 6.4 km/h 11.3 km/h 80 % 0 mm 0 W/m2
12:25 11.3 °C 8 °C 1009.4 hPa South 4.8 km/h 11.3 km/h 80 % 0 mm 0 W/m2
12:30 11.3 °C 8 °C 1009.4 hPa SSW 4.8 km/h 11.3 km/h 80 % 0 mm 0 W/m2
12:35 11.3 °C 8.2 °C 1009.4 hPa SW 6.4 km/h 11.3 km/h 81 % 0 mm 0 W/m2
12:40 11.3 °C 8.2 °C 1009.4 hPa SW 4.8 km/h 11.3 km/h 81 % 0 mm 0 W/m2
12:45 11.3 °C 8.2 °C 1009 hPa South 6.4 km/h 11.3 km/h 81 % 0 mm 0 W/m2
12:50 11.3 °C 8.3 °C 1009 hPa SSE 4.8 km/h 9.7 km/h 82 % 0 mm 0 W/m2
12:55 11.3 °C 8.3 °C 1009 hPa South 6.4 km/h 14.5 km/h 82 % 0 mm 0 W/m2
13:00 11.3 °C 8.3 °C 1009 hPa SSW 8 km/h 12.9 km/h 82 % 0 mm 0 W/m2
13:05 11.3 °C 8.5 °C 1009 hPa SSW 6.4 km/h 14.5 km/h 83 % 0 mm 0 W/m2
13:10 11.3 °C 8.5 °C 1009.4 hPa SSW 4.8 km/h 11.3 km/h 83 % 0 mm 0 W/m2
13:11 11.3 °C 8.5 °C 1009.4 hPa SSW 4.8 km/h 14.5 km/h 83 % 0 mm 0 W/m2
13:16 11.3 °C 8.5 °C 1009 hPa SSW 8 km/h 12.9 km/h 83 % 0 mm 0 W/m2
13:21 11.3 °C 8.7 °C 1009.4 hPa SSW 8 km/h 12.9 km/h 84 % 0 mm 0 W/m2
13:26 11.2 °C 8.6 °C 1009 hPa SSW 9.7 km/h 14.5 km/h 84 % 0 mm 0 W/m2
13:31 11.2 °C 8.6 °C 1009 hPa SW 9.7 km/h 14.5 km/h 84 % 0 mm 0 W/m2
13:36 11.3 °C 8.7 °C 1009 hPa South 12.9 km/h 20.9 km/h 84 % 0 mm 0 W/m2
13:41 11.3 °C 8.7 °C 1009 hPa SSW 11.3 km/h 16.1 km/h 84 % 0 mm 0 W/m2
13:46 11.3 °C 8.7 °C 1009 hPa SSW 9.7 km/h 12.9 km/h 84 % 0 mm 0 W/m2
13:51 11.2 °C 8.8 °C 1009 hPa SSW 9.7 km/h 17.7 km/h 85 % 0 mm 0 W/m2
13:56 11.2 °C 8.8 °C 1009 hPa SSW 11.3 km/h 16.1 km/h 85 % 0 mm 0 W/m2
14:01 11.2 °C 8.8 °C 1009 hPa SSW 11.3 km/h 16.1 km/h 85 % 0 mm 0 W/m2
14:06 11.2 °C 8.8 °C 1008.7 hPa SSW 11.3 km/h 16.1 km/h 85 % 0 mm 0 W/m2
14:11 11.2 °C 8.8 °C 1008.7 hPa SSW 12.9 km/h 19.3 km/h 85 % 0 mm 0 W/m2
14:16 11.2 °C 8.8 °C 1008.7 hPa SSW 14.5 km/h 20.9 km/h 85 % 0 mm 0 W/m2
14:21 11.2 °C 8.8 °C 1008.7 hPa SW 11.3 km/h 16.1 km/h 85 % 0 mm 0 W/m2
14:26 11.2 °C 8.8 °C 1008.7 hPa SSW 12.9 km/h 17.7 km/h 85 % 0 mm 0 W/m2
14:31 11.2 °C 8.8 °C 1008.7 hPa SSW 12.9 km/h 19.3 km/h 85 % 0 mm 0 W/m2
14:36 11.2 °C 8.8 °C 1008.7 hPa SSW 12.9 km/h 20.9 km/h 85 % 0 mm 0 W/m2
14:41 11.2 °C 8.8 °C 1008.7 hPa SSW 12.9 km/h 17.7 km/h 85 % 0 mm 0 W/m2
14:46 11.2 °C 8.8 °C 1008.4 hPa SSW 12.9 km/h 19.3 km/h 85 % 0 mm 0 W/m2
14:51 11.2 °C 8.8 °C 1008.4 hPa SSW 9.7 km/h 16.1 km/h 85 % 0 mm 0 W/m2
14:56 11.2 °C 8.8 °C 1008.4 hPa South 9.7 km/h 14.5 km/h 85 % 0 mm 0 W/m2
15:01 11.1 °C 8.7 °C 1008.7 hPa South 6.4 km/h 11.3 km/h 85 % 0 mm 0 W/m2
15:06 11.1 °C 8.8 °C 1008.4 hPa South 8 km/h 14.5 km/h 86 % 0 mm 0 W/m2
15:11 11.1 °C 8.8 °C 1008.4 hPa South 9.7 km/h 14.5 km/h 86 % 0 mm 0 W/m2
15:17 11.1 °C 8.8 °C 1008.4 hPa SSW 11.3 km/h 19.3 km/h 86 % 0 mm 0 W/m2
15:22 11.1 °C 8.7 °C 1008.4 hPa South 14.5 km/h 24.1 km/h 85 % 0 mm 0 W/m2
15:27 11.1 °C 8.7 °C 1008.4 hPa South 9.7 km/h 17.7 km/h 85 % 0 mm 0 W/m2
15:32 11.2 °C 8.8 °C 1008.4 hPa South 11.3 km/h 24.1 km/h 85 % 0 mm 0 W/m2
15:37 11.2 °C 8.8 °C 1008.4 hPa SSW 12.9 km/h 22.5 km/h 85 % 0 mm 0 W/m2
15:42 11.2 °C 8.8 °C 1008.4 hPa SSW 14.5 km/h 22.5 km/h 85 % 0 mm 0 W/m2
15:47 11.2 °C 8.8 °C 1008.4 hPa South 12.9 km/h 20.9 km/h 85 % 0 mm 0 W/m2
15:52 11.1 °C 8.7 °C 1008.4 hPa SSW 14.5 km/h 24.1 km/h 85 % 0 mm 0 W/m2
15:57 11.1 °C 8.5 °C 1008.4 hPa SSW 14.5 km/h 22.5 km/h 84 % 0 mm 0 W/m2
16:02 11.1 °C 8.5 °C 1008 hPa SSW 14.5 km/h 22.5 km/h 84 % 0 mm 0 W/m2
16:07 11.1 °C 8.5 °C 1008 hPa SSW 14.5 km/h 24.1 km/h 84 % 0 mm 0 W/m2
16:12 11.1 °C 8.5 °C 1008 hPa SSW 14.5 km/h 20.9 km/h 84 % 0 mm 0 W/m2
16:14 11.1 °C 8.5 °C 1008 hPa SSW 12.9 km/h 20.9 km/h 84 % 0 mm 0 W/m2
16:19 11 °C 8.4 °C 1008 hPa SSW 19.3 km/h 25.7 km/h 84 % 0 mm 0 W/m2
16:24 11 °C 8.4 °C 1008 hPa SSW 14.5 km/h 22.5 km/h 84 % 0 mm 0 W/m2
16:29 11 °C 8.4 °C 1008 hPa SSW 12.9 km/h 19.3 km/h 84 % 0 mm 0 W/m2
16:34 11 °C 8.4 °C 1008 hPa SSW 16.1 km/h 25.7 km/h 84 % 0 mm 0 W/m2
16:39 11 °C 8.4 °C 1008 hPa SW 14.5 km/h 20.9 km/h 84 % 0 mm 0 W/m2
16:44 11 °C 8.4 °C 1008 hPa SSW 12.9 km/h 24.1 km/h 84 % 0 mm 0 W/m2
16:49 11 °C 8.4 °C 1008 hPa SW 12.9 km/h 16.1 km/h 84 % 0 mm 0 W/m2
16:54 10.9 °C 8.3 °C 1008 hPa SW 9.7 km/h 12.9 km/h 84 % 0 mm 0 W/m2
16:59 10.9 °C 8.1 °C 1008 hPa SW 9.7 km/h 12.9 km/h 83 % 0 mm 0 W/m2
17:04 10.9 °C 8.1 °C 1008 hPa SW 8 km/h 14.5 km/h 83 % 0 mm 0 W/m2
17:09 10.9 °C 8.1 °C 1008 hPa SSW 8 km/h 12.9 km/h 83 % 0 mm 0 W/m2
17:14 10.9 °C 8.1 °C 1007.7 hPa SSW 8 km/h 16.1 km/h 83 % 0 mm 0 W/m2
17:19 11 °C 8.2 °C 1007.7 hPa SW 8 km/h 14.5 km/h 83 % 0 mm 0 W/m2
17:24 11 °C 8.2 °C 1007.7 hPa SW 8 km/h 12.9 km/h 83 % 0 mm 0 W/m2
17:29 11 °C 8.1 °C 1007.7 hPa SW 9.7 km/h 14.5 km/h 82 % 0 mm 0 W/m2
17:34 11.1 °C 8.2 °C 1007.7 hPa WSW 4.8 km/h 8 km/h 82 % 0 mm 0 W/m2
17:39 11 °C 8.1 °C 1007.3 hPa SSW 8 km/h 11.3 km/h 82 % 0 mm 0 W/m2
17:44 11 °C 8.1 °C 1007.3 hPa SSW 6.4 km/h 14.5 km/h 82 % 0 mm 0 W/m2
17:49 11 °C 8.1 °C 1007.3 hPa SSW 3.2 km/h 9.7 km/h 82 % 0 mm 0 W/m2
17:54 11 °C 8.1 °C 1007.3 hPa South 1.6 km/h 8 km/h 82 % 0 mm 0 W/m2
17:59 10.9 °C 8.1 °C 1007.3 hPa South 6.4 km/h 11.3 km/h 83 % 0 mm 0 W/m2
18:04 10.9 °C 8.1 °C 1007.3 hPa South 3.2 km/h 8 km/h 83 % 0 mm 0 W/m2
18:09 10.9 °C 8.1 °C 1007.3 hPa South 8 km/h 14.5 km/h 83 % 0 mm 0 W/m2
18:14 10.9 °C 8.1 °C 1007.3 hPa SSW 6.4 km/h 12.9 km/h 83 % 0 mm 0 W/m2
18:19 10.8 °C 8 °C 1007 hPa SSW 4.8 km/h 12.9 km/h 83 % 0 mm 0 W/m2
18:24 10.8 °C 8 °C 1007 hPa SSW 8 km/h 14.5 km/h 83 % 0 mm 0 W/m2
18:29 10.8 °C 8 °C 1007 hPa SSW 8 km/h 14.5 km/h 83 % 0 mm 0 W/m2
18:34 10.8 °C 8 °C 1007 hPa SSW 6.4 km/h 11.3 km/h 83 % 0 mm 0 W/m2
18:39 10.8 °C 8.2 °C 1007 hPa SSW 9.7 km/h 14.5 km/h 84 % 0 mm 0 W/m2
18:44 10.8 °C 8.2 °C 1006.7 hPa SSW 9.7 km/h 14.5 km/h 84 % 0 mm 0 W/m2
18:49 10.8 °C 8.2 °C 1006.7 hPa SSW 9.7 km/h 16.1 km/h 84 % 0 mm 0 W/m2
18:54 10.8 °C 8.2 °C 1006.7 hPa SSW 9.7 km/h 17.7 km/h 84 % 0 mm 0 W/m2
18:59 10.8 °C 8.2 °C 1006.7 hPa SSW 9.7 km/h 12.9 km/h 84 % 0 mm 0 W/m2
19:04 10.8 °C 8.2 °C 1006.7 hPa SSW 9.7 km/h 14.5 km/h 84 % 0 mm 0 W/m2
19:09 10.8 °C 8.2 °C 1006.7 hPa SSW 11.3 km/h 14.5 km/h 84 % 0 mm 0 W/m2
19:14 10.8 °C 8.2 °C 1006.7 hPa SSW 8 km/h 11.3 km/h 84 % 0 mm 0 W/m2
19:19 10.8 °C 8.2 °C 1006.3 hPa SSW 8 km/h 12.9 km/h 84 % 0 mm 0 W/m2
19:24 10.8 °C 8.2 °C 1006.3 hPa South 8 km/h 14.5 km/h 84 % 0 mm 0 W/m2
19:29 10.8 °C 8 °C 1006.3 hPa SSW 3.2 km/h 8 km/h 83 % 0 mm 0 W/m2
19:34 10.8 °C 8 °C 1006.3 hPa Calm   1.6 km/h 83 % 0 mm 0 W/m2
19:39 10.8 °C 8.2 °C 1006.3 hPa SSE 3.2 km/h 9.7 km/h 84 % 0 mm 0 W/m2
19:44 10.8 °C 8.2 °C 1006.3 hPa SE 6.4 km/h 9.7 km/h 84 % 0 mm 0 W/m2
19:49 10.8 °C 8.2 °C 1006 hPa SSE 4.8 km/h 9.7 km/h 84 % 0 mm 0 W/m2
19:54 10.7 °C 8.3 °C 1006 hPa SSE 4.8 km/h 9.7 km/h 85 % 0.25 mm 0 W/m2
19:59 10.7 °C 8.4 °C 1006 hPa South 4.8 km/h 9.7 km/h 86 % 0.25 mm 0 W/m2
20:04 10.6 °C 8.3 °C 1006 hPa South 8 km/h 14.5 km/h 86 % 0.25 mm 0 W/m2
20:09 10.5 °C 8.4 °C 1006 hPa SSW 6.4 km/h 12.9 km/h 87 % 0.25 mm 0 W/m2
20:14 10.4 °C 8.5 °C 1006 hPa South 9.7 km/h 12.9 km/h 88 % 0.25 mm 0 W/m2
20:19 10.4 °C 8.5 °C 1006 hPa SSE 6.4 km/h 11.3 km/h 88 % 0.25 mm 0 W/m2
20:24 10.4 °C 8.5 °C 1005.6 hPa SE 3.2 km/h 11.3 km/h 88 % 0.25 mm 0 W/m2
20:29 10.3 °C 8.6 °C 1005.6 hPa SSE 4.8 km/h 14.5 km/h 89 % 0.25 mm 0 W/m2
20:34 10.3 °C 8.6 °C 1005.3 hPa SSW 3.2 km/h 9.7 km/h 89 % 0.51 mm 0 W/m2
20:39 10.3 °C 8.6 °C 1005.3 hPa SSW 8 km/h 12.9 km/h 89 % 0.51 mm 0 W/m2
20:44 10.2 °C 8.6 °C 1005.3 hPa South 8 km/h 12.9 km/h 90 % 0.51 mm 0 W/m2
20:49 10.2 °C 8.6 °C 1005.3 hPa SSW 9.7 km/h 16.1 km/h 90 % 0.51 mm 0 W/m2
20:54 10.2 °C 8.6 °C 1005 hPa South 9.7 km/h 12.9 km/h 90 % 0.25 mm 0 W/m2
21:04 10.2 °C 8.8 °C 1005 hPa SW 8 km/h 14.5 km/h 91 % 0.25 mm 0 W/m2
21:09 10.1 °C 8.7 °C 1005 hPa SSW 8 km/h 12.9 km/h 91 % 0.25 mm 0 W/m2
21:14 10.1 °C 8.7 °C 1005 hPa SW 9.7 km/h 16.1 km/h 91 % 0.51 mm 0 W/m2
21:19 10.1 °C 8.7 °C 1004.6 hPa SSW 4.8 km/h 9.7 km/h 91 % 0.51 mm 0 W/m2
21:24 10 °C 8.6 °C 1004.6 hPa SSE 6.4 km/h 12.9 km/h 91 % 0.51 mm 0 W/m2
21:29 10 °C 8.6 °C 1004.6 hPa South 4.8 km/h 9.7 km/h 91 % 0.51 mm 0 W/m2
21:34 9.9 °C 8.7 °C 1004.6 hPa SSE 8 km/h 12.9 km/h 92 % 0.51 mm 0 W/m2
21:39 9.9 °C 8.7 °C 1004.3 hPa South 4.8 km/h 9.7 km/h 92 % 0.51 mm 0 W/m2
21:44 9.9 °C 8.7 °C 1004.3 hPa South 6.4 km/h 12.9 km/h 92 % 0.51 mm 0 W/m2
21:49 9.8 °C 8.6 °C 1004.3 hPa South 9.7 km/h 16.1 km/h 92 % 0.51 mm 0 W/m2
21:54 9.8 °C 8.6 °C 1003.9 hPa SSW 6.4 km/h 12.9 km/h 92 % 0.76 mm 0 W/m2
21:59 9.8 °C 8.6 °C 1003.9 hPa South 6.4 km/h 12.9 km/h 92 % 0.76 mm 0 W/m2
22:04 9.8 °C 8.6 °C 1003.9 hPa South 3.2 km/h 11.3 km/h 92 % 1.02 mm 0 W/m2
22:09 9.8 °C 8.6 °C 1003.9 hPa SSE 3.2 km/h 9.7 km/h 92 % 1.02 mm 0 W/m2
22:14 9.8 °C 8.7 °C 1003.6 hPa SSE 6.4 km/h 14.5 km/h 93 % 0.76 mm 0 W/m2
22:19 9.8 °C 8.7 °C 1003.6 hPa South 6.4 km/h 11.3 km/h 93 % 0.76 mm 0 W/m2
22:24 9.7 °C 8.6 °C 1003.6 hPa South 4.8 km/h 11.3 km/h 93 % 0.76 mm 0 W/m2
22:29 9.7 °C 8.6 °C 1003.3 hPa South 4.8 km/h 11.3 km/h 93 % 0.51 mm 0 W/m2
22:34 9.7 °C 8.6 °C 1003.3 hPa South 6.4 km/h 11.3 km/h 93 % 0.51 mm 0 W/m2
22:39 9.7 °C 8.6 °C 1003.3 hPa South 8 km/h 16.1 km/h 93 % 0.51 mm 0 W/m2
22:45 9.7 °C 8.6 °C 1002.9 hPa SSE 6.4 km/h 11.3 km/h 93 % 0.51 mm 0 W/m2
22:50 9.8 °C 8.9 °C 1002.9 hPa SSE 9.7 km/h 14.5 km/h 94 % 0.51 mm 0 W/m2
22:55 9.8 °C 8.9 °C 1002.9 hPa South 3.2 km/h 9.7 km/h 94 % 0.25 mm 0 W/m2
23:00 9.8 °C 8.9 °C 1002.9 hPa South 3.2 km/h 12.9 km/h 94 % 0.25 mm 0 W/m2
23:05 9.8 °C 8.9 °C 1002.9 hPa Calm     94 % 0 mm 0 W/m2
23:10 9.8 °C 8.9 °C 1002.6 hPa SSE 4.8 km/h 9.7 km/h 94 % 0 mm 0 W/m2
23:16 9.8 °C 8.9 °C 1002.6 hPa SE 4.8 km/h 8 km/h 94 % 0 mm 0 W/m2
23:20 9.8 °C 8.9 °C 1002.6 hPa SE 6.4 km/h 9.7 km/h 94 % 0 mm 0 W/m2
23:23 9.8 °C 8.9 °C 1002.3 hPa SE 6.4 km/h 9.7 km/h 94 % 0 mm 0 W/m2
23:27 9.8 °C 8.9 °C 1002.6 hPa SSE 4.8 km/h 9.7 km/h 94 % 0 mm 0 W/m2
23:29 9.8 °C 8.9 °C 1002.3 hPa SE 4.8 km/h 11.3 km/h 94 % 0 mm 0 W/m2
23:30 9.8 °C 8.9 °C 1002.3 hPa SE 6.4 km/h 11.3 km/h 94 % 0 mm 0 W/m2
23:35 9.8 °C 8.9 °C 1002.3 hPa SE 4.8 km/h 9.7 km/h 94 % 0 mm 0 W/m2
23:40 9.8 °C 8.9 °C 1002.3 hPa SSE 3.2 km/h 8 km/h 94 % 0 mm 0 W/m2
23:45 9.8 °C 8.9 °C 1002.3 hPa SSE 3.2 km/h 9.7 km/h 94 % 0 mm 0 W/m2
23:50 9.8 °C 8.9 °C 1002.3 hPa SSW 8 km/h 17.7 km/h 94 % 0 mm 0 W/m2
23:55 9.8 °C 8.9 °C 1001.9 hPa SSE 3.2 km/h 8 km/h 94 % 0 mm 0 W/m2
Delerius-Weather
Compliments of Weather Underground - 2.25 mb

Data updates at regular intervals.